Hauptseite
METAR-TAF:

METAR-TAF

Flughäfen :

Flughafen Asunción

Asunción, Paraguay

Breite: 25-16S, Länge: 057-38W, Höhe: 101 m

Beobachtung

Neuester Wetterbericht von vor 43 Minuten, um 20:00 UTC
Wind 6 kt aus Nordost
Temperatur 30°C
Luftfeuchtigkeit 43%
Luftdruck 1015 hPa
Sichtweite 10 km oder mehr
keine Wolken unter 1500 m und keine Kumulonimbus oder Gewitterwolken

METAR: SGAS 232000Z 05006KT CAVOK 30/16 Q1015

Zeit: 16:43 (20:43 UTC)

Prognose

Neuester Wetterbericht von vor 3 Stunden und 43 Minuten, um 17:00 UTC
Gültige Prognose vom 23 um 18 UTC bis 24 um 18 UTC
Wind 8 kt aus Nord/Nordost
Sichtweite 10 km oder mehr
keine Wolken unter 1500 m und keine Kumulonimbus oder Gewitterwolken
Wahrscheinlichkeit 30%
vom 23 um 21 UTC bis 23 um 23 UTC
Wind 6 kt aus Ost
Sichtweite: 6000 m

TAF: SGAS 231700Z 2318/2418 03008KT CAVOK TX31/2319Z TN18/2410Z PROB30 2321/2323 09006KT 6000 NSC

Wetterbeobachtungen und Prognosen von mehr als 4000 Flughäfen (METAR und TAF Bericht).

Die verfügbaren Stationen werden durch gelbe und rote Markierungen auf der Karte dargestellt.

Führen Sie die Maus auf sie, um den Namen der Station zu sehen.

Darauf klicken, um die Beobachtung von Wetterbeobachtungen und Prognosen zu sehen.

Um die Karte zu ändern : klicken Sie auf den grünen Tasten mit einem schwarzen Kreuz Zum Vergrößern, auf den grünen Button mit einem Gedankenstrich zu verkleinern, oder auf die grünen Pfeile für benachbarte Karten.


METAR-TAF: